createdAt,value
2023-11-15T00:00:09.101Z,99831.59
2023-11-15T00:02:36.685Z,99852.75
2023-11-15T00:05:04.866Z,99860.38
2023-11-15T00:07:32.507Z,99857.81
2023-11-15T00:09:59.489Z,99867.69
2023-11-15T00:12:26.525Z,99868.59
2023-11-15T00:14:53.815Z,99887.28
2023-11-15T00:17:21.095Z,99898.69
2023-11-15T00:19:47.970Z,99903.38
2023-11-15T00:22:16.266Z,99908.41
2023-11-15T00:24:44.265Z,99914.53
2023-11-15T00:27:12.646Z,99915.38
2023-11-15T00:29:39.688Z,99911.38
2023-11-15T00:32:07.034Z,99922.59
2023-11-15T00:34:33.877Z,99935.81
2023-11-15T00:37:01.134Z,99952.59
2023-11-15T00:39:29.504Z,99949.13
2023-11-15T00:41:56.713Z,99951.03
2023-11-15T00:44:23.615Z,99954.41
2023-11-15T00:46:51.555Z,99963.38
2023-11-15T00:49:18.378Z,99972.88
2023-11-15T00:51:45.114Z,99968.63
2023-11-15T00:54:13.355Z,99985.44
2023-11-15T00:56:40.236Z,99981.75
2023-11-15T00:59:07.178Z,99989.56
2023-11-15T01:01:34.021Z,100010.53
2023-11-15T01:04:00.985Z,100005.25
2023-11-15T01:06:27.796Z,100003.13
2023-11-15T01:08:56.281Z,100022.13
2023-11-15T01:11:24.735Z,100024.03
2023-11-15T01:13:51.676Z,100018.03
2023-11-15T01:16:19.229Z,100033.75
2023-11-15T01:18:46.036Z,100048.00
2023-11-15T01:21:13.292Z,100033.03
2023-11-15T01:23:40.235Z,100050.38
2023-11-15T01:26:07.384Z,100042.56
2023-11-15T01:28:34.728Z,100060.97
2023-11-15T01:31:01.509Z,100050.66
2023-11-15T01:33:28.366Z,100078.84
2023-11-15T01:35:55.161Z,100081.69
2023-11-15T01:38:22.323Z,100075.66
2023-11-15T01:40:49.690Z,100078.25
2023-11-15T01:43:17.838Z,100086.34
2023-11-15T01:45:52.363Z,100086.97
2023-11-15T01:48:19.782Z,100094.19
2023-11-15T01:50:48.161Z,100091.56
2023-11-15T01:53:15.827Z,100091.50
2023-11-15T01:55:43.991Z,100091.16
2023-11-15T01:58:10.946Z,100097.28
2023-11-15T02:00:40.240Z,100106.91
2023-11-15T02:03:07.107Z,100099.03
2023-11-15T02:05:34.012Z,100101.75
2023-11-15T02:08:00.849Z,100112.28
2023-11-15T02:10:27.705Z,100111.50
2023-11-15T02:12:55.317Z,100120.94
2023-11-15T02:15:22.860Z,100119.03
2023-11-15T02:17:50.276Z,100134.72
2023-11-15T02:20:17.574Z,100132.97
2023-11-15T02:22:49.936Z,100136.59
2023-11-15T02:25:18.625Z,100127.88
2023-11-15T02:27:45.830Z,100135.72
2023-11-15T02:30:13.044Z,100148.75
2023-11-15T02:32:42.457Z,100146.69
2023-11-15T02:35:09.847Z,100149.19
2023-11-15T02:37:36.967Z,100149.41
2023-11-15T02:40:06.414Z,100151.16
2023-11-15T02:42:34.151Z,100163.41
2023-11-15T02:45:01.143Z,100163.44
2023-11-15T02:47:28.383Z,100165.25
2023-11-15T02:49:55.433Z,100172.19
2023-11-15T02:52:22.887Z,100171.41
2023-11-15T02:54:50.112Z,100174.94
2023-11-15T02:57:16.942Z,100192.91
2023-11-15T02:59:43.727Z,100182.47
2023-11-15T03:02:11.549Z,100187.81
2023-11-15T03:04:39.064Z,100188.00
2023-11-15T03:07:05.930Z,100201.03
2023-11-15T03:09:33.005Z,100194.00
2023-11-15T03:12:00.142Z,100187.03
2023-11-15T03:14:29.820Z,100204.59
2023-11-15T03:16:56.654Z,100195.84
2023-11-15T03:19:23.509Z,100206.31
2023-11-15T03:21:50.199Z,100202.63
2023-11-15T03:24:16.974Z,100203.41
2023-11-15T03:26:43.781Z,100205.25
2023-11-15T03:29:10.569Z,100212.31
2023-11-15T03:31:37.256Z,100199.16
2023-11-15T03:34:06.040Z,100205.38
2023-11-15T03:36:34.058Z,100214.25
2023-11-15T03:39:01.051Z,100217.78
2023-11-15T03:41:27.921Z,100219.63
2023-11-15T03:43:54.612Z,100217.91
2023-11-15T03:46:21.377Z,100228.47
2023-11-15T03:48:48.420Z,100225.84
2023-11-15T03:51:15.168Z,100238.88
2023-11-15T03:53:41.978Z,100236.13
2023-11-15T03:56:09.986Z,100249.41
2023-11-15T03:58:37.012Z,100245.97
2023-11-15T04:01:04.355Z,100255.63
2023-11-15T04:03:31.766Z,100248.50
2023-11-15T04:05:58.716Z,100250.28
2023-11-15T04:08:25.552Z,100266.03
2023-11-15T04:10:52.287Z,100259.97
2023-11-15T04:13:21.021Z,100259.88
2023-11-15T04:15:49.010Z,100266.69
2023-11-15T04:18:16.268Z,100269.47
2023-11-15T04:20:43.460Z,100272.28
2023-11-15T04:23:10.342Z,100278.34
2023-11-15T04:25:37.106Z,100292.22
2023-11-15T04:28:05.951Z,100282.59
2023-11-15T04:30:33.308Z,100299.16
2023-11-15T04:33:00.882Z,100287.88
2023-11-15T04:35:28.116Z,100298.44
2023-11-15T04:37:54.879Z,100301.94
2023-11-15T04:40:22.257Z,100299.19
2023-11-15T04:42:49.126Z,100303.63
2023-11-15T04:45:16.051Z,100304.66
2023-11-15T04:47:43.776Z,100309.03
2023-11-15T04:50:10.837Z,100309.97
2023-11-15T04:52:37.775Z,100302.13
2023-11-15T04:55:05.364Z,100315.00
2023-11-15T04:57:34.905Z,100314.09
2023-11-15T05:00:01.752Z,100322.84
2023-11-15T05:02:28.911Z,100326.38
2023-11-15T05:04:56.565Z,100337.81
2023-11-15T05:07:26.472Z,100330.88
2023-11-15T05:09:53.373Z,100327.50
2023-11-15T05:12:20.257Z,100335.19
2023-11-15T05:14:47.705Z,100341.28
2023-11-15T05:17:15.292Z,100330.88
2023-11-15T05:19:42.030Z,100340.44
2023-11-15T05:22:08.801Z,100343.97
2023-11-15T05:24:37.171Z,100338.75
2023-11-15T05:27:04.038Z,100344.00
2023-11-15T05:29:31.558Z,100336.25
2023-11-15T05:31:58.910Z,100345.78
2023-11-15T05:34:25.942Z,100343.03
2023-11-15T05:36:52.682Z,100345.69
2023-11-15T05:39:19.489Z,100329.06
2023-11-15T05:41:46.375Z,100331.69
2023-11-15T05:44:13.150Z,100337.00
2023-11-15T05:46:39.935Z,100340.53
2023-11-15T05:49:06.713Z,100337.94
2023-11-15T05:51:35.096Z,100349.31
2023-11-15T05:54:06.364Z,100351.09
2023-11-15T05:56:33.800Z,100347.53
2023-11-15T05:59:01.165Z,100338.72
2023-11-15T06:01:28.104Z,100337.06
2023-11-15T06:03:55.257Z,100337.97
2023-11-15T06:06:22.610Z,100337.13
2023-11-15T06:08:49.472Z,100339.91
2023-11-15T06:11:16.474Z,100333.09
2023-11-15T06:13:44.180Z,100344.44
2023-11-15T06:16:12.396Z,100351.31
2023-11-15T06:18:39.995Z,100355.72
2023-11-15T06:21:07.302Z,100365.19
2023-11-15T06:23:37.564Z,100371.47
2023-11-15T06:26:04.816Z,100377.50
2023-11-15T06:28:31.673Z,100388.03
2023-11-15T06:30:58.958Z,100396.69
2023-11-15T06:33:27.218Z,100386.22
2023-11-15T06:35:54.531Z,100390.59
2023-11-15T06:38:21.907Z,100394.13
2023-11-15T06:40:48.901Z,100397.66
2023-11-15T06:43:15.696Z,100399.47
2023-11-15T06:45:42.474Z,100417.81
2023-11-15T06:48:09.373Z,100414.31
2023-11-15T06:50:36.283Z,100423.13
2023-11-15T06:53:03.106Z,100419.59
2023-11-15T06:55:30.072Z,100429.16
2023-11-15T06:57:56.822Z,100424.75
2023-11-15T07:00:26.962Z,100432.53
2023-11-15T07:02:53.941Z,100425.63
2023-11-15T07:05:20.913Z,100423.88
2023-11-15T07:07:49.182Z,100443.94
2023-11-15T07:10:16.844Z,100446.59
2023-11-15T07:12:44.156Z,100455.44
2023-11-15T07:15:16.618Z,100451.03
2023-11-15T07:17:45.793Z,100455.44
2023-11-15T07:20:12.806Z,100454.47
2023-11-15T07:22:39.935Z,100456.31
2023-11-15T07:25:08.440Z,100463.25
2023-11-15T07:27:35.811Z,100468.47
2023-11-15T07:30:03.014Z,100469.41
2023-11-15T07:32:29.921Z,100467.63
2023-11-15T07:34:57.089Z,100469.41
2023-11-15T07:37:24.147Z,100459.84
2023-11-15T07:39:51.599Z,100459.81
2023-11-15T07:42:18.637Z,100472.94
2023-11-15T07:44:46.968Z,100476.28
2023-11-15T07:47:15.280Z,100485.78
2023-11-15T07:49:42.087Z,100484.91
2023-11-15T07:52:08.750Z,100494.47
2023-11-15T07:54:35.587Z,100492.72
2023-11-15T07:57:02.446Z,100489.25
2023-11-15T07:59:29.310Z,100498.06
2023-11-15T08:01:56.101Z,100503.28
2023-11-15T08:04:23.378Z,100504.97
2023-11-15T08:06:50.531Z,100506.69
2023-11-15T08:09:27.329Z,100511.78
2023-11-15T08:11:57.886Z,100513.56
2023-11-15T08:14:27.172Z,100518.81
2023-11-15T08:16:54.682Z,100521.41
2023-11-15T08:19:21.820Z,100531.00
2023-11-15T08:21:49.349Z,100529.19
2023-11-15T08:24:22.716Z,100522.22
2023-11-15T08:26:55.058Z,100526.56
2023-11-15T08:29:23.014Z,100528.19
2023-11-15T08:31:50.656Z,100538.78
2023-11-15T08:34:21.153Z,100536.22
2023-11-15T08:36:50.328Z,100536.13
2023-11-15T08:39:18.184Z,100532.66
2023-11-15T08:41:48.103Z,100538.75
2023-11-15T08:44:16.107Z,100531.81
2023-11-15T08:46:46.966Z,100530.88
2023-11-15T08:49:17.846Z,100528.25
2023-11-15T08:51:46.521Z,100530.84
2023-11-15T08:54:13.725Z,100538.66
2023-11-15T08:56:44.164Z,100534.19
2023-11-15T08:59:16.135Z,100536.81
2023-11-15T09:02:05.232Z,100536.72
2023-11-15T09:04:35.126Z,100530.53
2023-11-15T09:07:02.271Z,100535.72
2023-11-15T09:09:29.358Z,100530.41
2023-11-15T09:11:58.594Z,100544.31
2023-11-15T09:14:25.445Z,100546.06
2023-11-15T09:16:52.841Z,100549.47
2023-11-15T09:19:22.500Z,100554.66
2023-11-15T09:21:54.684Z,100559.81
2023-11-15T09:24:26.243Z,100572.91
2023-11-15T09:26:53.473Z,100564.16
2023-11-15T09:29:21.190Z,100573.75
2023-11-15T09:31:48.149Z,100575.44
2023-11-15T09:34:15.914Z,100579.84
2023-11-15T09:36:49.268Z,100579.03
2023-11-15T09:39:18.095Z,100582.50
2023-11-15T09:41:55.568Z,100588.53
2023-11-15T09:44:24.985Z,100589.31
2023-11-15T09:46:59.496Z,100591.97
2023-11-15T09:49:27.992Z,100586.72
2023-11-15T09:51:58.331Z,100589.34
2023-11-15T09:54:25.316Z,100586.63
2023-11-15T09:56:53.000Z,100597.03
2023-11-15T09:59:20.531Z,100586.44
2023-11-15T10:01:50.564Z,100591.59
2023-11-15T10:04:24.133Z,100582.84
2023-11-15T10:06:59.791Z,100589.88
2023-11-15T10:09:38.320Z,100592.31
2023-11-15T10:12:07.464Z,100594.00
2023-11-15T10:14:36.856Z,100601.69
2023-11-15T10:17:08.397Z,100604.94
2023-11-15T10:19:35.648Z,100613.84
2023-11-15T10:22:06.834Z,100608.63
2023-11-15T10:24:36.209Z,100612.19
2023-11-15T10:27:12.730Z,100616.56
2023-11-15T10:29:40.466Z,100608.59
2023-11-15T10:32:07.760Z,100617.31
2023-11-15T10:34:36.502Z,100615.50
2023-11-15T10:37:11.951Z,100616.31
2023-11-15T10:39:45.700Z,100618.91
2023-11-15T10:42:14.113Z,100616.47
2023-11-15T10:44:42.321Z,100612.28
2023-11-15T10:47:09.680Z,100601.72
2023-11-15T10:49:44.890Z,100602.56
2023-11-15T10:52:12.989Z,100608.84
2023-11-15T10:54:44.235Z,100601.06
2023-11-15T10:57:11.341Z,100597.78
2023-11-15T10:59:40.307Z,100601.16
2023-11-15T11:02:07.885Z,100596.72
2023-11-15T11:04:35.606Z,100593.16
2023-11-15T11:07:09.239Z,100593.06
2023-11-15T11:09:59.230Z,100594.78
2023-11-15T11:12:26.716Z,100587.09
2023-11-15T11:15:31.841Z,100594.13
2023-11-15T11:18:06.230Z,100588.88
2023-11-15T11:20:37.369Z,100594.22
2023-11-15T11:23:24.154Z,100593.47
2023-11-15T11:25:53.171Z,100587.34
2023-11-15T11:28:22.379Z,100589.16
2023-11-15T11:31:20.139Z,100592.59
2023-11-15T11:34:09.366Z,100595.22
2023-11-15T11:36:55.033Z,100602.13
2023-11-15T11:39:42.792Z,100597.84
2023-11-15T11:42:25.515Z,100609.28
2023-11-15T11:44:56.482Z,100598.84
2023-11-15T11:47:23.552Z,100592.75
2023-11-15T11:49:51.174Z,100598.78
2023-11-15T11:52:18.772Z,100597.03
2023-11-15T11:54:51.375Z,100599.63
2023-11-15T11:57:27.180Z,100609.28
2023-11-15T12:00:05.954Z,100598.09
2023-11-15T12:02:36.762Z,100593.66
2023-11-15T12:05:13.226Z,100590.13
2023-11-15T12:07:44.012Z,100588.31
2023-11-15T12:10:15.091Z,100592.69
2023-11-15T12:12:54.481Z,100590.94
2023-11-15T12:15:24.495Z,100593.56
2023-11-15T12:17:53.246Z,100591.00
2023-11-15T12:20:41.055Z,100597.31
2023-11-15T12:23:13.686Z,100594.75
2023-11-15T12:25:49.420Z,100582.34
2023-11-15T12:28:21.048Z,100584.06
2023-11-15T12:30:48.131Z,100579.56
2023-11-15T12:33:15.489Z,100582.03
2023-11-15T12:35:44.235Z,100579.28
2023-11-15T12:38:13.673Z,100573.19
2023-11-15T12:40:42.481Z,100576.72
2023-11-15T12:43:26.461Z,100574.97
2023-11-15T12:45:56.743Z,100585.94
2023-11-15T12:48:23.647Z,100579.59
2023-11-15T12:50:51.203Z,100578.06
2023-11-15T12:53:19.105Z,100577.06
2023-11-15T12:55:55.935Z,100578.53
2023-11-15T12:58:28.469Z,100574.31
2023-11-15T13:01:09.388Z,100585.13
2023-11-15T13:03:38.083Z,100581.59
2023-11-15T13:06:19.576Z,100575.16
2023-11-15T13:08:51.712Z,100583.06
2023-11-15T13:11:26.404Z,100574.94
2023-11-15T13:13:53.818Z,100579.13
2023-11-15T13:16:22.254Z,100570.72
2023-11-15T13:18:50.619Z,100583.44
2023-11-15T13:21:20.273Z,100581.63
2023-11-15T13:23:48.903Z,100582.88
2023-11-15T13:26:16.460Z,100580.53
2023-11-15T13:28:45.870Z,100577.28
2023-11-15T13:31:16.355Z,100577.28
2023-11-15T13:33:49.389Z,100582.88
2023-11-15T13:36:19.754Z,100582.28
2023-11-15T13:38:47.219Z,100587.72
2023-11-15T13:41:16.965Z,100598.13
2023-11-15T13:43:45.925Z,100587.84
2023-11-15T13:46:13.227Z,100603.72
2023-11-15T13:48:41.215Z,100618.63
2023-11-15T13:51:08.359Z,100599.59
2023-11-15T13:53:40.432Z,100611.06
2023-11-15T13:56:08.687Z,100614.59
2023-11-15T13:58:37.458Z,100600.66
2023-11-15T14:01:06.318Z,100622.84
2023-11-15T14:03:34.161Z,100614.38
2023-11-15T14:06:04.441Z,100618.03
2023-11-15T14:08:47.303Z,100628.66
2023-11-15T14:11:23.552Z,100630.31
2023-11-15T14:13:50.604Z,100625.91
2023-11-15T14:16:17.617Z,100635.44
2023-11-15T14:18:48.776Z,100633.53
2023-11-15T14:21:15.876Z,100637.75
2023-11-15T14:23:42.778Z,100644.06
2023-11-15T14:26:10.136Z,100653.09
2023-11-15T14:28:37.070Z,100663.72
2023-11-15T14:31:06.408Z,100668.09
2023-11-15T14:33:33.911Z,100677.56
2023-11-15T14:36:00.885Z,100668.09
2023-11-15T14:38:29.683Z,100677.59
2023-11-15T14:40:57.203Z,100685.31
2023-11-15T14:43:24.099Z,100681.19
2023-11-15T14:45:51.967Z,100682.09
2023-11-15T14:48:20.234Z,100692.53
2023-11-15T14:50:47.762Z,100690.94
2023-11-15T14:53:24.283Z,100683.22
2023-11-15T14:55:52.773Z,100681.56
2023-11-15T14:58:27.443Z,100682.56
2023-11-15T15:00:54.578Z,100674.78
2023-11-15T15:03:24.312Z,100687.03
2023-11-15T15:05:53.162Z,100686.19
2023-11-15T15:08:23.044Z,100687.13
2023-11-15T15:10:54.917Z,100698.63
2023-11-15T15:13:22.410Z,100703.88
2023-11-15T15:15:49.646Z,100697.88
2023-11-15T15:18:19.697Z,100696.13
2023-11-15T15:20:52.615Z,100697.84
2023-11-15T15:23:19.794Z,100703.03
2023-11-15T15:25:47.468Z,100705.81
2023-11-15T15:28:16.067Z,100687.44
2023-11-15T15:30:44.657Z,100695.31
2023-11-15T15:33:12.232Z,100704.91
2023-11-15T15:35:39.718Z,100713.66
2023-11-15T15:38:09.001Z,100718.91
2023-11-15T15:40:39.701Z,100709.34
2023-11-15T15:43:07.168Z,100724.25
2023-11-15T15:45:37.191Z,100735.66
2023-11-15T15:48:05.969Z,100726.03
2023-11-15T15:50:33.432Z,100732.19
2023-11-15T15:53:00.275Z,100727.91
2023-11-15T15:55:27.235Z,100744.50
2023-11-15T15:57:54.318Z,100744.50
2023-11-15T16:00:21.548Z,100747.16
2023-11-15T16:02:49.618Z,100747.22
2023-11-15T16:05:19.387Z,100738.50
2023-11-15T16:07:46.251Z,100737.63
2023-11-15T16:10:16.471Z,100734.16
2023-11-15T16:12:44.017Z,100735.91
2023-11-15T16:15:18.218Z,100747.28
2023-11-15T16:17:45.933Z,100744.69
2023-11-15T16:20:13.739Z,100746.41
2023-11-15T16:22:40.933Z,100747.28
2023-11-15T16:25:08.692Z,100754.31
2023-11-15T16:27:38.294Z,100760.44
2023-11-15T16:30:06.790Z,100764.88
2023-11-15T16:32:36.703Z,100768.38
2023-11-15T16:35:05.582Z,100767.50
2023-11-15T16:37:35.513Z,100763.16
2023-11-15T16:40:06.896Z,100762.31
2023-11-15T16:42:34.559Z,100764.91
2023-11-15T16:45:08.309Z,100769.22
2023-11-15T16:47:37.291Z,100767.47
2023-11-15T16:50:05.176Z,100773.59
2023-11-15T16:52:34.372Z,100778.81
2023-11-15T16:55:05.316Z,100777.06
2023-11-15T16:57:32.504Z,100785.81
2023-11-15T17:00:01.083Z,100786.63
2023-11-15T17:02:33.284Z,100785.78
2023-11-15T17:05:00.831Z,100787.59
2023-11-15T17:07:28.255Z,100780.59
2023-11-15T17:09:55.939Z,100783.19
2023-11-15T17:12:27.195Z,100780.56
2023-11-15T17:14:57.798Z,100778.81
2023-11-15T17:17:28.779Z,100783.19
2023-11-15T17:19:58.706Z,100784.91
2023-11-15T17:22:32.237Z,100788.41
2023-11-15T17:24:59.376Z,100784.91
2023-11-15T17:27:26.363Z,100790.16
2023-11-15T17:29:53.511Z,100784.94
2023-11-15T17:32:20.374Z,100786.66
2023-11-15T17:34:49.256Z,100786.66
2023-11-15T17:37:19.589Z,100787.53
2023-11-15T17:39:46.536Z,100788.44
2023-11-15T17:42:13.531Z,100796.28
2023-11-15T17:44:40.609Z,100791.06
2023-11-15T17:47:20.266Z,100792.78
2023-11-15T17:49:48.321Z,100788.44
2023-11-15T17:52:15.917Z,100787.53
2023-11-15T17:54:52.354Z,100786.63
2023-11-15T17:57:24.426Z,100787.53
2023-11-15T18:00:00.429Z,100785.78
2023-11-15T18:02:27.450Z,100789.28
2023-11-15T18:05:00.273Z,100793.66
2023-11-15T18:07:28.228Z,100794.53
2023-11-15T18:09:55.158Z,100791.03
2023-11-15T18:12:21.941Z,100789.31
2023-11-15T18:14:48.937Z,100787.59
2023-11-15T18:17:17.345Z,100785.84
2023-11-15T18:19:44.172Z,100782.34
2023-11-15T18:22:10.998Z,100794.59
2023-11-15T18:24:38.367Z,100785.84
2023-11-15T18:27:05.245Z,100796.31
2023-11-15T18:29:33.567Z,100790.19
2023-11-15T18:32:00.428Z,100791.94
2023-11-15T18:34:27.491Z,100790.19
2023-11-15T18:36:54.738Z,100787.59
2023-11-15T18:39:22.051Z,100787.56
2023-11-15T18:41:49.646Z,100787.59
2023-11-15T18:44:17.352Z,100789.31
2023-11-15T18:46:48.374Z,100792.78
2023-11-15T18:49:16.254Z,100798.88
2023-11-15T18:51:43.754Z,100794.53
2023-11-15T18:54:12.125Z,100788.44
2023-11-15T18:56:38.930Z,100791.03
2023-11-15T18:59:06.154Z,100790.16
2023-11-15T19:01:33.062Z,100785.81
2023-11-15T19:04:01.369Z,100772.69
2023-11-15T19:06:29.211Z,100786.63
2023-11-15T19:08:56.591Z,100790.97
2023-11-15T19:11:23.431Z,100790.97
2023-11-15T19:13:51.283Z,100789.22
2023-11-15T19:16:20.072Z,100799.72
2023-11-15T19:18:47.867Z,100795.38
2023-11-15T19:21:17.739Z,100788.41
2023-11-15T19:23:44.699Z,100785.81
2023-11-15T19:26:11.963Z,100774.47
2023-11-15T19:28:39.434Z,100781.41
2023-11-15T19:31:06.546Z,100788.41
2023-11-15T19:33:33.846Z,100786.69
2023-11-15T19:36:00.913Z,100785.81
2023-11-15T19:38:28.009Z,100780.59
2023-11-15T19:40:54.907Z,100776.25
2023-11-15T19:43:23.330Z,100781.47
2023-11-15T19:45:56.243Z,100782.34
2023-11-15T19:48:23.967Z,100772.75
2023-11-15T19:50:51.237Z,100780.59
2023-11-15T19:53:20.278Z,100776.22
2023-11-15T19:55:50.673Z,100783.22
2023-11-15T19:58:17.657Z,100784.06
2023-11-15T20:00:44.647Z,100787.59
2023-11-15T20:03:11.866Z,100788.44
2023-11-15T20:05:42.300Z,100789.31
2023-11-15T20:08:10.390Z,100790.22
2023-11-15T20:10:37.501Z,100796.25
2023-11-15T20:13:05.424Z,100788.41
2023-11-15T20:15:32.385Z,100798.06
2023-11-15T20:17:59.759Z,100786.69
2023-11-15T20:20:26.717Z,100787.53
2023-11-15T20:22:55.767Z,100785.72
2023-11-15T20:25:24.758Z,100788.41
2023-11-15T20:27:51.562Z,100788.41
2023-11-15T20:30:19.797Z,100790.13
2023-11-15T20:32:48.516Z,100789.25
2023-11-15T20:35:16.806Z,100790.97
2023-11-15T20:37:43.789Z,100783.16
2023-11-15T20:40:16.642Z,100782.28
2023-11-15T20:42:47.630Z,100790.13
2023-11-15T20:45:15.008Z,100788.41
2023-11-15T20:47:41.894Z,100782.31
2023-11-15T20:50:09.921Z,100783.16
2023-11-15T20:52:36.935Z,100792.78
2023-11-15T20:55:03.897Z,100789.25
2023-11-15T20:57:30.764Z,100789.25
2023-11-15T20:59:59.892Z,100790.16
2023-11-15T21:02:27.495Z,100789.25
2023-11-15T21:04:58.569Z,100787.53
2023-11-15T21:07:26.978Z,100794.47
2023-11-15T21:09:54.448Z,100787.53
2023-11-15T21:12:22.860Z,100787.50
2023-11-15T21:14:50.410Z,100797.16
2023-11-15T21:17:17.438Z,100797.13
2023-11-15T21:19:44.804Z,100793.66
2023-11-15T21:22:11.794Z,100796.22
2023-11-15T21:24:39.280Z,100794.50
2023-11-15T21:27:08.191Z,100798.88
2023-11-15T21:29:36.509Z,100792.75
2023-11-15T21:32:08.490Z,100792.78
2023-11-15T21:34:35.960Z,100775.31
2023-11-15T21:37:09.631Z,100783.19
2023-11-15T21:39:40.591Z,100779.72
2023-11-15T21:42:07.949Z,100777.97
2023-11-15T21:44:34.745Z,100775.38
2023-11-15T21:47:02.153Z,100770.16
2023-11-15T21:49:29.016Z,100770.16
2023-11-15T21:51:55.858Z,100768.41
2023-11-15T21:54:25.703Z,100776.25
2023-11-15T21:56:52.798Z,100766.66
2023-11-15T21:59:20.195Z,100776.28
2023-11-15T22:01:47.422Z,100772.78
2023-11-15T22:04:15.484Z,100777.16
2023-11-15T22:06:52.288Z,100775.41
2023-11-15T22:09:28.006Z,100778.88
2023-11-15T22:11:55.021Z,100771.91
2023-11-15T22:14:22.431Z,100764.94
2023-11-15T22:16:53.093Z,100764.94
2023-11-15T22:19:20.029Z,100757.94
2023-11-15T22:21:47.396Z,100757.94
2023-11-15T22:24:14.721Z,100752.72
2023-11-15T22:26:41.638Z,100762.31
2023-11-15T22:29:08.544Z,100757.06
2023-11-15T22:31:36.419Z,100754.47
2023-11-15T22:34:03.477Z,100759.72
2023-11-15T22:36:31.316Z,100765.81
2023-11-15T22:38:58.437Z,100765.81
2023-11-15T22:41:25.377Z,100770.19
2023-11-15T22:43:52.329Z,100770.16
2023-11-15T22:46:19.347Z,100771.91
2023-11-15T22:48:47.298Z,100767.56
2023-11-15T22:51:14.437Z,100768.41
2023-11-15T22:53:41.835Z,100769.31
2023-11-15T22:56:10.375Z,100757.97
2023-11-15T22:58:37.244Z,100749.25
2023-11-15T23:01:04.764Z,100752.72
2023-11-15T23:03:31.919Z,100744.03
2023-11-15T23:05:59.664Z,100743.13
2023-11-15T23:08:26.989Z,100749.28
2023-11-15T23:10:54.068Z,100745.75
2023-11-15T23:13:20.950Z,100751.00
2023-11-15T23:15:51.708Z,100750.13
2023-11-15T23:18:19.746Z,100751.00
2023-11-15T23:20:48.795Z,100748.38
2023-11-15T23:23:18.963Z,100746.63
2023-11-15T23:25:51.539Z,100750.13
2023-11-15T23:28:24.871Z,100751.00
2023-11-15T23:30:56.971Z,100755.38
2023-11-15T23:33:23.844Z,100764.06
2023-11-15T23:35:51.248Z,100757.94
2023-11-15T23:38:18.162Z,100756.22
2023-11-15T23:40:45.256Z,100762.31
2023-11-15T23:43:12.894Z,100755.34
2023-11-15T23:45:40.127Z,100748.38
2023-11-15T23:48:08.793Z,100747.50
2023-11-15T23:50:35.874Z,100751.88
2023-11-15T23:53:02.859Z,100754.47
2023-11-15T23:55:30.470Z,100751.88
2023-11-15T23:58:04.522Z,100749.25
